createdAt,value
2019-04-03T00:00:08.788Z,6.4
2019-04-03T00:00:58.711Z,6.4
2019-04-03T00:01:48.916Z,6.4
2019-04-03T00:02:38.782Z,6.4
2019-04-03T00:03:28.813Z,6.3
2019-04-03T00:04:18.802Z,6.3
2019-04-03T00:05:09.234Z,6.3
2019-04-03T00:05:59.206Z,6.3
2019-04-03T00:06:49.007Z,6.3
2019-04-03T00:07:39.520Z,6.3
2019-04-03T00:08:29.289Z,6.3
2019-04-03T00:09:18.955Z,6.3
2019-04-03T00:10:09.432Z,6.3
2019-04-03T00:10:59.598Z,6.3
2019-04-03T00:11:49.337Z,6.2
2019-04-03T00:12:42.955Z,6.2
2019-04-03T00:13:30.041Z,6.2
2019-04-03T00:14:19.545Z,6.2
2019-04-03T00:15:09.346Z,6.1
2019-04-03T00:16:00.117Z,6.1
2019-04-03T00:16:49.997Z,6.1
2019-04-03T00:17:40.065Z,6.1
2019-04-03T00:18:30.009Z,6.1
2019-04-03T00:19:20.057Z,6.1
2019-04-03T00:20:09.698Z,6.1
2019-04-03T00:21:00.077Z,6.1
2019-04-03T00:21:52.898Z,6
2019-04-03T00:22:40.676Z,6
2019-04-03T00:23:30.444Z,6
2019-04-03T00:24:23.619Z,6
2019-04-03T00:25:10.604Z,6
2019-04-03T00:26:00.409Z,5.9
2019-04-03T00:26:54.031Z,5.9
2019-04-03T00:27:40.807Z,5.9
2019-04-03T00:28:30.560Z,5.9
2019-04-03T00:29:23.961Z,5.9
2019-04-03T00:30:11.084Z,5.9
2019-04-03T00:31:01.339Z,5.8
2019-04-03T00:31:54.534Z,5.8
2019-04-03T00:32:40.876Z,5.8
2019-04-03T00:33:31.048Z,5.8
2019-04-03T00:34:23.971Z,5.8
2019-04-03T00:35:11.432Z,5.8
2019-04-03T00:36:01.511Z,5.8
2019-04-03T00:36:54.254Z,5.7
2019-04-03T00:37:41.608Z,5.7
2019-04-03T00:38:31.655Z,5.7
2019-04-03T00:39:24.900Z,5.7
2019-04-03T00:40:11.775Z,5.6
2019-04-03T00:41:01.818Z,5.6
2019-04-03T00:41:52.917Z,5.6
2019-04-03T00:42:41.598Z,5.6
2019-04-03T00:43:32.149Z,5.6
2019-04-03T00:44:24.813Z,5.6
2019-04-03T00:45:11.785Z,5.6
2019-04-03T00:46:01.826Z,5.6
2019-04-03T00:46:52.203Z,5.6
2019-04-03T00:47:41.733Z,5.6
2019-04-03T00:48:32.290Z,5.5
2019-04-03T00:49:22.238Z,5.5
2019-04-03T00:50:12.415Z,5.5
2019-04-03T00:51:02.802Z,5.5
2019-04-03T00:51:52.630Z,5.5
2019-04-03T00:52:42.845Z,5.5
2019-04-03T00:53:32.855Z,5.4
2019-04-03T00:54:22.745Z,5.4
2019-04-03T00:55:12.913Z,5.4
2019-04-03T00:56:02.447Z,5.4
2019-04-03T00:56:52.623Z,5.4
2019-04-03T00:57:43.192Z,5.4
2019-04-03T00:58:33.210Z,5.4
2019-04-03T00:59:23.111Z,5.4
2019-04-03T01:00:12.867Z,5.3
2019-04-03T01:01:03.408Z,5.3
2019-04-03T01:01:53.265Z,5.3
2019-04-03T01:02:43.337Z,5.3
2019-04-03T01:03:33.622Z,5.3
2019-04-03T01:04:22.894Z,5.3
2019-04-03T01:05:13.792Z,5.2
2019-04-03T01:06:03.727Z,5.2
2019-04-03T01:06:53.627Z,5.2
2019-04-03T01:07:44.062Z,5.2
2019-04-03T01:08:33.951Z,5.2
2019-04-03T01:09:23.903Z,5.1
2019-04-03T01:10:13.874Z,5.1
2019-04-03T01:11:04.213Z,5.1
2019-04-03T01:11:53.526Z,5.1
2019-04-03T01:12:44.184Z,5.1
2019-04-03T01:13:33.919Z,5.1
2019-04-03T01:14:24.161Z,5.1
2019-04-03T01:15:14.282Z,5.1
2019-04-03T01:16:04.651Z,5
2019-04-03T01:16:54.278Z,5
2019-04-03T01:17:43.855Z,5
2019-04-03T01:18:36.939Z,4.9
2019-04-03T01:19:24.342Z,4.9
2019-04-03T01:20:14.031Z,4.9
2019-04-03T01:21:07.679Z,4.9
2019-04-03T01:21:54.846Z,4.9
2019-04-03T01:22:44.498Z,4.9
2019-04-03T01:23:38.208Z,4.9
2019-04-03T01:24:24.919Z,4.9
2019-04-03T01:25:14.722Z,4.9
2019-04-03T01:26:05.267Z,4.8
2019-04-03T01:26:55.470Z,4.8
2019-04-03T01:27:45.221Z,4.8
2019-04-03T01:28:35.218Z,4.8
2019-04-03T01:29:25.255Z,4.8
2019-04-03T01:30:16.509Z,4.8
2019-04-03T01:31:05.150Z,4.7
2019-04-03T01:31:55.363Z,4.7
2019-04-03T01:32:48.800Z,4.7
2019-04-03T01:33:35.546Z,4.7
2019-04-03T01:34:25.891Z,4.6
2019-04-03T01:35:19.086Z,4.6
2019-04-03T01:36:05.903Z,4.6
2019-04-03T01:36:55.623Z,4.6
2019-04-03T01:37:45.584Z,4.6
2019-04-03T01:38:36.204Z,4.6
2019-04-03T01:39:25.746Z,4.6
2019-04-03T01:40:15.770Z,4.5
2019-04-03T01:41:05.888Z,4.5
2019-04-03T01:41:56.077Z,4.4
2019-04-03T01:42:45.938Z,4.4
2019-04-03T01:43:35.855Z,4.4
2019-04-03T01:44:27.248Z,4.4
2019-04-03T01:45:16.533Z,4.4
2019-04-03T01:46:06.313Z,4.4
2019-04-03T01:46:59.472Z,4.4
2019-04-03T01:47:46.373Z,4.4
2019-04-03T01:48:36.731Z,4.3
2019-04-03T01:49:29.625Z,4.3
2019-04-03T01:50:16.786Z,4.3
2019-04-03T01:51:06.538Z,4.3
2019-04-03T01:51:57.317Z,4.3
2019-04-03T01:52:46.956Z,4.3
2019-04-03T01:53:37.563Z,4.3
2019-04-03T01:54:27.067Z,4.3
2019-04-03T01:55:17.135Z,4.3
2019-04-03T01:56:07.577Z,4.2
2019-04-03T01:56:57.381Z,4.2
2019-04-03T01:57:47.697Z,4.2
2019-04-03T01:58:38.522Z,4.2
2019-04-03T01:59:27.314Z,4.1
2019-04-03T02:00:16.971Z,4.1
2019-04-03T02:01:09.521Z,4.1
2019-04-03T02:01:57.879Z,4.1
2019-04-03T02:02:47.837Z,4.1
2019-04-03T02:03:37.741Z,4.1
2019-04-03T02:04:27.267Z,4.1
2019-04-03T02:05:17.857Z,4.1
2019-04-03T02:06:07.982Z,4.1
2019-04-03T02:06:57.692Z,4.1
2019-04-03T02:07:48.349Z,4
2019-04-03T02:08:37.825Z,4
2019-04-03T02:09:28.154Z,4
2019-04-03T02:10:19.966Z,4
2019-04-03T02:11:08.319Z,3.9
2019-04-03T02:11:58.557Z,3.9
2019-04-03T02:12:51.611Z,3.9
2019-04-03T02:13:38.062Z,3.9
2019-04-03T02:14:28.176Z,3.9
2019-04-03T02:15:20.994Z,3.9
2019-04-03T02:16:08.646Z,3.9
2019-04-03T02:16:58.978Z,3.9
2019-04-03T02:17:48.778Z,3.9
2019-04-03T02:18:38.921Z,3.8
2019-04-03T02:19:29.213Z,3.8
2019-04-03T02:20:18.991Z,3.8
2019-04-03T02:21:09.020Z,3.8
2019-04-03T02:22:00.808Z,3.8
2019-04-03T02:22:49.231Z,3.8
2019-04-03T02:23:39.242Z,3.8
2019-04-03T02:24:32.671Z,3.8
2019-04-03T02:25:19.066Z,3.8
2019-04-03T02:26:09.441Z,3.8
2019-04-03T02:26:59.272Z,3.8
2019-04-03T02:27:49.308Z,3.7
2019-04-03T02:28:39.284Z,3.7
2019-04-03T02:29:29.145Z,3.7
2019-04-03T02:30:19.863Z,3.7
2019-04-03T02:31:10.198Z,3.6
2019-04-03T02:31:59.941Z,3.6
2019-04-03T02:32:50.200Z,3.6
2019-04-03T02:33:40.468Z,3.6
2019-04-03T02:34:33.368Z,3.6
2019-04-03T02:35:20.673Z,3.6
2019-04-03T02:36:15.023Z,3.6
2019-04-03T02:37:00.492Z,3.6
2019-04-03T02:37:52.448Z,3.6
2019-04-03T02:38:40.340Z,3.6
2019-04-03T02:39:30.493Z,3.6
2019-04-03T02:40:20.994Z,3.5
2019-04-03T02:41:10.470Z,3.5
2019-04-03T02:42:00.701Z,3.5
2019-04-03T02:42:50.675Z,3.5
2019-04-03T02:43:41.082Z,3.5
2019-04-03T02:44:31.308Z,3.4
2019-04-03T02:45:26.627Z,3.4
2019-04-03T02:46:10.924Z,3.4
2019-04-03T02:47:03.074Z,3.4
2019-04-03T02:47:51.390Z,3.4
2019-04-03T02:48:41.356Z,3.4
2019-04-03T02:49:30.838Z,3.4
2019-04-03T02:50:21.399Z,3.4
2019-04-03T02:51:10.942Z,3.4
2019-04-03T02:52:01.271Z,3.4
2019-04-03T02:52:51.582Z,3.4
2019-04-03T02:53:41.601Z,3.4
2019-04-03T02:54:36.979Z,3.4
2019-04-03T02:55:21.641Z,3.4
2019-04-03T02:56:15.422Z,3.4
2019-04-03T02:57:01.941Z,3.4
2019-04-03T02:57:53.052Z,3.4
2019-04-03T02:58:41.845Z,3.4
2019-04-03T02:59:31.810Z,3.4
2019-04-03T03:00:22.063Z,3.4
2019-04-03T03:01:12.489Z,3.4
2019-04-03T03:02:01.979Z,3.3
2019-04-03T03:02:51.819Z,3.4
2019-04-03T03:03:42.168Z,3.3
2019-04-03T03:07:13.277Z,3.3
2019-04-03T03:08:02.635Z,3.3
2019-04-03T03:08:53.044Z,3.3
2019-04-03T03:09:49.154Z,3.3
2019-04-03T03:10:33.609Z,3.3
2019-04-03T03:11:26.650Z,3.3
2019-04-03T03:12:12.939Z,3.3
2019-04-03T03:13:04.699Z,3.3
2019-04-03T03:13:53.336Z,3.3
2019-04-03T03:14:43.302Z,3.3
2019-04-03T03:15:33.898Z,3.3
2019-04-03T03:16:23.141Z,3.3
2019-04-03T03:17:13.563Z,3.3
2019-04-03T03:18:04.403Z,3.3
2019-04-03T03:18:53.671Z,3.3
2019-04-03T03:19:43.700Z,3.3
2019-04-03T03:20:33.898Z,3.3
2019-04-03T03:21:24.323Z,3.3
2019-04-03T03:22:19.860Z,3.3
2019-04-03T03:23:03.627Z,3.3
2019-04-03T03:23:58.861Z,3.3
2019-04-03T03:24:44.007Z,3.2
2019-04-03T03:25:35.775Z,3.2
2019-04-03T03:26:23.560Z,3.2
2019-04-03T03:27:13.991Z,3.2
2019-04-03T03:28:04.297Z,3.2
2019-04-03T03:28:54.360Z,3.2
2019-04-03T03:29:44.317Z,3.1
2019-04-03T03:31:07.809Z,3.2
2019-04-03T03:32:43.074Z,3.1
2019-04-03T03:33:49.931Z,3.1
2019-04-03T03:35:30.014Z,3.2
2019-04-03T03:36:11.219Z,3.1
2019-04-03T03:37:04.950Z,3.1
2019-04-03T03:37:47.816Z,3.1
2019-04-03T03:38:42.260Z,3.1
2019-04-03T03:39:28.899Z,3.1
2019-04-03T03:40:19.835Z,3.1
2019-04-03T03:41:08.492Z,3.1
2019-04-03T03:42:01.088Z,3.1
2019-04-03T03:42:48.703Z,3.1
2019-04-03T03:43:40.711Z,3
2019-04-03T03:44:29.479Z,3
2019-04-03T03:45:23.152Z,3
2019-04-03T03:46:08.844Z,3
2019-04-03T03:47:04.853Z,3
2019-04-03T03:47:48.917Z,3
2019-04-03T03:48:46.939Z,3
2019-04-03T03:49:29.218Z,3
2019-04-03T03:50:26.769Z,3
2019-04-03T03:51:09.597Z,3
2019-04-03T03:52:06.375Z,2.9
2019-04-03T03:52:49.577Z,3
2019-04-03T03:53:46.805Z,3
2019-04-03T03:54:29.924Z,3
2019-04-03T03:55:26.305Z,2.9
2019-04-03T03:56:10.517Z,3
2019-04-03T03:57:07.169Z,2.9
2019-04-03T03:57:50.187Z,2.9
2019-04-03T03:58:40.269Z,2.9
2019-04-03T03:59:29.945Z,2.9
2019-04-03T04:00:25.757Z,2.9
2019-04-03T04:01:10.323Z,2.9
2019-04-03T04:02:06.716Z,2.9
2019-04-03T04:02:50.345Z,2.9
2019-04-03T04:03:43.874Z,2.9
2019-04-03T04:04:30.604Z,2.9
2019-04-03T04:05:25.017Z,2.9
2019-04-03T04:06:09.718Z,2.9
2019-04-03T04:07:05.966Z,2.9
2019-04-03T04:07:50.883Z,2.9
2019-04-03T04:08:46.839Z,2.9
2019-04-03T04:09:30.605Z,2.9
2019-04-03T04:10:25.979Z,2.9
2019-04-03T04:11:10.893Z,2.9
2019-04-03T04:12:07.282Z,2.9
2019-04-03T04:12:51.527Z,2.9
2019-04-03T04:13:41.146Z,2.9
2019-04-03T04:14:31.021Z,2.9
2019-04-03T04:15:20.550Z,2.9
2019-04-03T04:16:10.914Z,2.9
2019-04-03T04:17:01.341Z,2.9
2019-04-03T04:17:52.899Z,2.9
2019-04-03T04:18:41.586Z,2.9
2019-04-03T04:19:33.474Z,2.9
2019-04-03T04:20:22.138Z,2.9
2019-04-03T04:21:13.845Z,2.9
2019-04-03T04:22:01.836Z,2.9
2019-04-03T04:22:54.061Z,2.9
2019-04-03T04:23:41.842Z,2.9
2019-04-03T04:24:31.767Z,2.9
2019-04-03T04:25:21.526Z,2.9
2019-04-03T04:26:11.853Z,2.9
2019-04-03T04:27:04.779Z,2.9
2019-04-03T04:27:52.076Z,2.9
2019-04-03T04:28:42.721Z,2.9
2019-04-03T04:29:31.694Z,2.9
2019-04-03T04:30:21.574Z,2.9
2019-04-03T04:31:15.004Z,2.9
2019-04-03T04:32:02.543Z,2.9
2019-04-03T04:32:52.573Z,2.9
2019-04-03T04:33:41.998Z,2.9
2019-04-03T04:34:32.564Z,2.9
2019-04-03T04:35:24.094Z,2.9
2019-04-03T04:36:12.551Z,3
2019-04-03T04:37:05.065Z,3
2019-04-03T04:37:56.596Z,3
2019-04-03T04:38:42.193Z,3
2019-04-03T04:39:32.851Z,3
2019-04-03T04:40:22.578Z,3
2019-04-03T04:41:13.008Z,3.1
2019-04-03T04:42:06.673Z,3.1
2019-04-03T04:42:52.992Z,3.1
2019-04-03T04:43:43.496Z,3.1
2019-04-03T04:44:32.908Z,3.1
2019-04-03T04:45:22.970Z,3.1
2019-04-03T04:46:15.535Z,3.1
2019-04-03T04:47:03.270Z,3.1
2019-04-03T04:47:53.435Z,3.2
2019-04-03T04:48:43.194Z,3.2
2019-04-03T04:49:33.225Z,3.2
2019-04-03T04:50:26.967Z,3.2
2019-04-03T04:51:13.813Z,3.2
2019-04-03T04:52:03.942Z,3.3
2019-04-03T04:52:54.013Z,3.3
2019-04-03T04:53:43.892Z,3.3
2019-04-03T04:54:33.906Z,3.3
2019-04-03T04:55:23.925Z,3.3
2019-04-03T04:56:13.662Z,3.3
2019-04-03T04:57:03.797Z,3.3
2019-04-03T04:57:54.324Z,3.4
2019-04-03T04:58:45.459Z,3.4
2019-04-03T04:59:38.065Z,3.4
2019-04-03T05:00:24.128Z,3.4
2019-04-03T05:01:16.991Z,3.5
2019-04-03T05:02:04.674Z,3.5
2019-04-03T05:02:54.455Z,3.6
2019-04-03T05:03:44.380Z,3.6
2019-04-03T05:04:34.572Z,3.6
2019-04-03T05:05:30.979Z,3.7
2019-04-03T05:06:14.989Z,3.8
2019-04-03T05:07:05.024Z,3.8
2019-04-03T05:07:53.978Z,3.9
2019-04-03T05:08:45.044Z,4
2019-04-03T05:09:37.167Z,4.1
2019-04-03T05:10:24.726Z,4.2
2019-04-03T05:11:14.797Z,4.3
2019-04-03T05:12:04.911Z,4.4
2019-04-03T05:12:54.961Z,4.5
2019-04-03T05:13:48.443Z,4.6
2019-04-03T05:14:35.149Z,4.8
2019-04-03T05:15:26.103Z,4.9
2019-04-03T05:16:15.104Z,5
2019-04-03T05:17:05.306Z,5.2
2019-04-03T05:17:59.001Z,5.3
2019-04-03T05:18:45.335Z,5.4
2019-04-03T05:19:35.846Z,5.6
2019-04-03T05:20:26.207Z,5.8
2019-04-03T05:21:15.873Z,5.9
2019-04-03T05:22:05.929Z,6.1
2019-04-03T05:22:57.555Z,6.3
2019-04-03T05:23:45.413Z,6.4
2019-04-03T05:24:36.190Z,6.8
2019-04-03T05:25:26.350Z,6.8
2019-04-03T05:26:15.893Z,7.1
2019-04-03T05:27:09.718Z,7.3
2019-04-03T05:27:55.778Z,7.4
2019-04-03T05:28:58.965Z,7.7
2019-04-03T05:29:36.695Z,7.9
2019-04-03T05:30:26.170Z,8.1
2019-04-03T05:31:16.495Z,8.4
2019-04-03T05:32:10.414Z,8.6
2019-04-03T05:32:56.620Z,8.8
2019-04-03T05:33:46.630Z,9
2019-04-03T05:34:36.455Z,9.3
2019-04-03T05:35:26.811Z,9.5
2019-04-03T05:36:19.862Z,9.8
2019-04-03T05:37:07.239Z,10
2019-04-03T05:37:56.772Z,10.3
2019-04-03T05:38:47.338Z,10.4
2019-04-03T05:39:36.974Z,10.8
2019-04-03T05:40:28.298Z,10.9
2019-04-03T05:41:17.272Z,11.3
2019-04-03T05:42:07.290Z,11.5
2019-04-03T05:43:00.285Z,11.8
2019-04-03T05:43:47.339Z,12
2019-04-03T05:44:37.232Z,12.3
2019-04-03T05:45:27.427Z,12.6
2019-04-03T05:46:21.001Z,12.8
2019-04-03T05:47:09.909Z,13.1
2019-04-03T05:47:57.619Z,13.3
2019-04-03T05:48:50.127Z,13.6
2019-04-03T05:49:37.837Z,13.9
2019-04-03T05:50:29.067Z,14.2
2019-04-03T05:51:17.862Z,14.4
2019-04-03T05:52:07.817Z,14.7
2019-04-03T05:52:57.964Z,14.9
2019-04-03T05:53:47.862Z,15.3
2019-04-03T05:54:44.983Z,15.5
2019-04-03T05:55:27.906Z,15.8
2019-04-03T05:56:18.252Z,16
2019-04-03T05:57:08.374Z,16.3
2019-04-03T05:57:58.201Z,16.6
2019-04-03T05:59:11.582Z,17.3
2019-04-03T06:00:08.359Z,17.3
2019-04-03T06:01:10.544Z,17.7
2019-04-03T06:01:47.911Z,18
2019-04-03T06:02:31.393Z,18.3
2019-04-03T06:05:14.968Z,19.1
2019-04-03T06:06:02.991Z,19.4
2019-04-03T06:06:52.507Z,19.8
2019-04-03T06:07:43.085Z,20
2019-04-03T06:08:36.943Z,20.3
2019-04-03T06:09:24.978Z,20.6
2019-04-03T06:10:12.785Z,20.9
2019-04-03T06:11:10.694Z,21.2
2019-04-03T06:11:54.816Z,21.6
2019-04-03T06:12:47.333Z,21.8
2019-04-03T06:13:33.195Z,22.2
2019-04-03T06:14:25.197Z,22.5
2019-04-03T06:15:13.482Z,22.8
2019-04-03T06:16:03.821Z,23.1
2019-04-03T06:16:57.355Z,23.4
2019-04-03T06:17:43.827Z,23.7
2019-04-03T06:18:34.269Z,23.9
2019-04-03T06:19:23.618Z,24.2
2019-04-03T06:20:13.627Z,24.5
2019-04-03T06:21:04.073Z,24.9
2019-04-03T06:21:53.502Z,25.1
2019-04-03T06:22:44.388Z,25.5
2019-04-03T06:23:33.845Z,25.9
2019-04-03T06:24:26.825Z,26.1
2019-04-03T06:25:16.495Z,26.5
2019-04-03T06:26:04.977Z,26.9
2019-04-03T06:26:53.874Z,27.2
2019-04-03T06:27:47.867Z,27.6
2019-04-03T06:28:34.511Z,27.9
2019-04-03T06:29:24.684Z,28.3
2019-04-03T06:30:14.482Z,28.6
2019-04-03T06:31:04.974Z,28.9
2019-04-03T06:31:54.305Z,29.2
2019-04-03T06:32:44.494Z,29.5
2019-04-03T06:33:37.874Z,29.8
2019-04-03T06:34:24.299Z,30
2019-04-03T06:35:16.248Z,30.3
2019-04-03T06:36:05.022Z,30.6
2019-04-03T06:36:55.119Z,30.9
2019-04-03T06:37:44.867Z,31.1
2019-04-03T06:38:35.512Z,31.4
2019-04-03T06:39:33.540Z,31.6
2019-04-03T06:40:15.367Z,31.8
2019-04-03T06:41:09.075Z,32.1
2019-04-03T06:41:55.639Z,32.4
2019-04-03T06:42:46.936Z,32.8
2019-04-03T06:43:35.764Z,33.1
2019-04-03T06:44:25.523Z,33.4
2019-04-03T06:45:18.008Z,33.6
2019-04-03T06:46:05.861Z,33.9
2019-04-03T06:46:56.998Z,34.1
2019-04-03T06:47:45.971Z,34.4
2019-04-03T06:48:38.759Z,34.6
2019-04-03T06:49:26.213Z,34.9
2019-04-03T06:50:19.438Z,35.2
2019-04-03T06:51:05.698Z,35.4
2019-04-03T06:51:56.405Z,35.8
2019-04-03T06:52:46.341Z,36
2019-04-03T06:53:36.405Z,36.3
2019-04-03T06:54:26.675Z,36.6
2019-04-03T06:55:16.401Z,36.9
2019-04-03T06:56:09.577Z,37.3
2019-04-03T06:56:56.611Z,37.5
2019-04-03T06:57:46.755Z,37.8
2019-04-03T06:58:45.573Z,38.1
2019-04-03T06:59:26.537Z,38.4
2019-04-03T07:00:16.804Z,38.7
2019-04-03T07:01:06.338Z,39
2019-04-03T07:01:57.092Z,39.3
2019-04-03T07:02:46.818Z,39.7
2019-04-03T07:05:13.080Z,40.5
2019-04-03T07:06:02.777Z,40.9
2019-04-03T07:06:56.815Z,41.3
2019-04-03T07:07:42.697Z,41.7
2019-04-03T07:08:42.180Z,42
2019-04-03T07:09:38.585Z,42.4
2019-04-03T07:10:27.542Z,42.9
2019-04-03T07:11:02.960Z,43.2
2019-04-03T07:11:53.000Z,43.4
2019-04-03T07:12:43.656Z,43.7
2019-04-03T07:13:32.798Z,44
2019-04-03T07:14:27.136Z,44.4
2019-04-03T07:15:13.660Z,44.6
2019-04-03T07:16:03.817Z,44.9
2019-04-03T07:16:53.484Z,45.2
2019-04-03T07:17:43.586Z,45.5
2019-04-03T07:18:37.431Z,45.8
2019-04-03T07:19:23.624Z,47
2019-04-03T07:20:21.905Z,46.7
2019-04-03T07:21:03.754Z,45.1
2019-04-03T07:21:57.534Z,43.4
2019-04-03T07:22:44.083Z,40
2019-04-03T07:23:33.693Z,37.9
2019-04-03T07:24:23.646Z,36.6
2019-04-03T07:25:14.006Z,35.6
2019-04-03T07:26:07.051Z,35
2019-04-03T07:26:54.376Z,34.6
2019-04-03T07:27:44.421Z,34.4
2019-04-03T07:28:34.596Z,34.5
2019-04-03T07:29:27.431Z,34.8
2019-04-03T07:30:18.134Z,35.2
2019-04-03T07:31:04.746Z,35.8
2019-04-03T07:31:56.959Z,36.3
2019-04-03T07:32:44.466Z,36.9
2019-04-03T07:33:35.041Z,37.5
2019-04-03T07:34:24.773Z,38.1
2019-04-03T07:35:15.087Z,38.8
2019-04-03T07:36:04.808Z,39.5
2019-04-03T07:36:54.656Z,40.3
2019-04-03T07:37:44.903Z,40.9
2019-04-03T07:38:35.145Z,41.6
2019-04-03T07:39:25.169Z,42.3
2019-04-03T07:40:15.153Z,43
2019-04-03T07:41:05.182Z,43.7
2019-04-03T07:41:56.618Z,44.3
2019-04-03T07:42:45.403Z,44.8
2019-04-03T07:43:35.351Z,45.3
2019-04-03T07:44:25.487Z,45.8
2019-04-03T07:45:15.428Z,47.1
2019-04-03T07:46:05.964Z,47.7
2019-04-03T07:46:57.294Z,46.5
2019-04-03T07:47:45.698Z,45.1
2019-04-03T07:48:39.363Z,43.5
2019-04-03T07:49:25.308Z,41.3
2019-04-03T07:50:16.245Z,40.1
2019-04-03T07:51:05.818Z,39.3
2019-04-03T07:51:56.284Z,38.8
2019-04-03T07:52:50.177Z,38.8
2019-04-03T07:53:36.068Z,38.9
2019-04-03T07:54:29.030Z,39.3
2019-04-03T07:55:15.735Z,39.8
2019-04-03T07:56:05.937Z,40.6
2019-04-03T07:56:59.634Z,41.2
2019-04-03T07:57:46.556Z,42
2019-04-03T07:58:36.333Z,42.7
2019-04-03T07:59:26.697Z,43.6
2019-04-03T08:00:16.780Z,44.6
2019-04-03T08:01:09.418Z,45.4
2019-04-03T08:01:56.687Z,46.9
2019-04-03T08:02:51.264Z,48.1
2019-04-03T08:03:37.039Z,48.1
2019-04-03T08:05:51.700Z,45.1
2019-04-03T08:06:41.948Z,44.4
2019-04-03T08:07:32.177Z,43.6
2019-04-03T08:08:22.689Z,43.7
2019-04-03T08:09:12.734Z,44.3
2019-04-03T08:10:02.696Z,44.9
2019-04-03T08:10:52.661Z,45.4
2019-04-03T08:11:42.142Z,45.7
2019-04-03T08:12:36.414Z,45.6
2019-04-03T08:13:22.716Z,45.3
2019-04-03T08:14:12.874Z,45.1
2019-04-03T08:15:02.916Z,44.9
2019-04-03T08:15:52.857Z,45.1
2019-04-03T08:16:48.819Z,45.3
2019-04-03T08:17:32.969Z,45.4
2019-04-03T08:18:24.180Z,45.6
2019-04-03T08:19:12.458Z,45.7
2019-04-03T08:20:03.473Z,45.7
2019-04-03T08:20:53.348Z,45.7
2019-04-03T08:21:43.284Z,45.8
2019-04-03T08:22:36.342Z,45.8
2019-04-03T08:23:22.993Z,45.8
2019-04-03T08:24:13.349Z,45.8
2019-04-03T08:25:03.778Z,45.6
2019-04-03T08:25:56.863Z,45.5
2019-04-03T08:26:43.223Z,45.4
2019-04-03T08:27:32.961Z,45.3
2019-04-03T08:28:31.260Z,45.2
2019-04-03T08:29:14.233Z,45.2
2019-04-03T08:30:07.298Z,45.2
2019-04-03T08:30:54.300Z,45.2
2019-04-03T08:31:50.067Z,45.3
2019-04-03T08:32:34.539Z,45.3
2019-04-03T08:33:32.137Z,45.3
2019-04-03T08:34:20.289Z,45.4
2019-04-03T08:35:24.253Z,45.5
2019-04-03T08:35:54.924Z,45.8
2019-04-03T08:36:44.490Z,45.9
2019-04-03T08:37:34.762Z,46.1
2019-04-03T08:38:24.980Z,46.3
2019-04-03T08:39:19.233Z,46.4
2019-04-03T08:40:04.152Z,46.6
2019-04-03T08:40:56.003Z,46.7
2019-04-03T08:41:44.693Z,46.9
2019-04-03T08:42:35.255Z,47.1
2019-04-03T08:43:24.980Z,47.3
2019-04-03T08:44:14.554Z,47.5
2019-04-03T08:45:09.279Z,47.6
2019-04-03T08:45:55.134Z,47.8
2019-04-03T08:46:46.394Z,47.9
2019-04-03T08:47:39.007Z,47.9
2019-04-03T08:48:25.187Z,47.9
2019-04-03T08:49:15.183Z,47.9
2019-04-03T08:50:05.571Z,47.9
2019-04-03T08:50:55.018Z,47.9
2019-04-03T08:51:45.461Z,48.1
2019-04-03T08:52:39.635Z,48.2
2019-04-03T08:53:25.521Z,48.4
2019-04-03T08:54:15.839Z,48.6
2019-04-03T08:55:05.980Z,48.7
2019-04-03T08:55:58.589Z,48.8
2019-04-03T08:56:49.435Z,48.9
2019-04-03T08:57:35.811Z,49.1
2019-04-03T08:58:28.814Z,49.3
2019-04-03T08:59:15.955Z,49.3
2019-04-03T09:00:06.110Z,49.4
2019-04-03T09:00:56.123Z,49.4
2019-04-03T09:01:46.491Z,49.5
2019-04-03T09:02:36.687Z,49.6
2019-04-03T09:03:26.175Z,49.8
2019-04-03T09:04:19.409Z,50
2019-04-03T09:05:07.069Z,50.2
2019-04-03T09:05:58.009Z,50.4
2019-04-03T09:06:46.527Z,50.7
2019-04-03T09:07:37.032Z,50.9
2019-04-03T09:08:29.171Z,51.1
2019-04-03T09:09:16.718Z,51.4
2019-04-03T09:10:06.981Z,51.4
2019-04-03T09:10:56.578Z,51.4
2019-04-03T09:11:46.415Z,51.4
2019-04-03T09:12:40.398Z,51.5
2019-04-03T09:13:27.018Z,51.6
2019-04-03T09:14:20.403Z,51.8
2019-04-03T09:16:01.315Z,52.1
2019-04-03T09:16:47.544Z,52.2
2019-04-03T09:17:37.627Z,52.1
2019-04-03T09:19:19.518Z,51.7
2019-04-03T09:20:07.262Z,51.5
2019-04-03T09:20:57.273Z,51.4
2019-04-03T09:21:53.073Z,51.5
2019-04-03T09:22:37.575Z,51.6
2019-04-03T09:23:27.677Z,51.6
2019-04-03T09:24:17.770Z,51.6
2019-04-03T09:25:07.610Z,51.3
2019-04-03T09:25:57.825Z,51
2019-04-03T09:26:48.133Z,50.7
2019-04-03T09:27:42.108Z,50.3
2019-04-03T09:28:27.630Z,50.1
2019-04-03T09:29:18.102Z,49.9
2019-04-03T09:30:08.255Z,49.8
2019-04-03T09:30:58.186Z,49.6
2019-04-03T09:31:52.481Z,49.4
2019-04-03T09:32:38.697Z,49.1
2019-04-03T09:33:32.122Z,48.9
2019-04-03T09:34:21.056Z,48.6
2019-04-03T09:35:08.627Z,48.3
2019-04-03T09:36:05.753Z,48.2
2019-04-03T09:36:48.327Z,48
2019-04-03T09:37:40.058Z,47.8
2019-04-03T09:38:29.094Z,47.4
2019-04-03T09:39:18.742Z,47.1
2019-04-03T09:40:09.412Z,46.9
2019-04-03T09:40:59.174Z,46.6
2019-04-03T09:41:51.635Z,46.4
2019-04-03T09:42:38.928Z,46.3
2019-04-03T09:43:29.431Z,46.2
2019-04-03T09:44:18.846Z,46.1
2019-04-03T09:45:08.821Z,45.9
2019-04-03T09:46:02.714Z,45.9
2019-04-03T09:46:48.749Z,45.9
2019-04-03T09:47:38.891Z,45.9
2019-04-03T09:48:28.819Z,45.8
2019-04-03T09:49:19.829Z,45.6
2019-04-03T09:50:09.858Z,45.3
2019-04-03T09:50:59.661Z,45.1
2019-04-03T09:51:53.842Z,45.1
2019-04-03T09:52:55.383Z,45.6
2019-04-03T09:53:30.036Z,46.4
2019-04-03T09:54:20.049Z,46.8
2019-04-03T09:55:09.938Z,47.3
2019-04-03T09:56:00.169Z,47.6
2019-04-03T09:57:07.048Z,48
2019-04-03T09:57:40.444Z,48.5
2019-04-03T09:58:30.101Z,48.8
2019-04-03T09:59:20.600Z,49.1
2019-04-03T10:00:13.053Z,49.4
2019-04-03T10:01:00.078Z,49.9
2019-04-03T10:01:50.711Z,50.3
2019-04-03T10:02:40.593Z,50.5
2019-04-03T10:03:33.556Z,50.7
2019-04-03T10:06:12.842Z,51.6
2019-04-03T10:07:05.092Z,52.3
2019-04-03T10:07:53.253Z,52.6
2019-04-03T10:08:43.136Z,52.9
2019-04-03T10:09:33.116Z,53.1
2019-04-03T10:10:26.508Z,53.4
2019-04-03T10:11:20.991Z,53.6
2019-04-03T10:12:03.193Z,53.9
2019-04-03T10:12:55.915Z,53.8
2019-04-03T10:13:43.382Z,53.3
2019-04-03T10:14:33.361Z,53.1
2019-04-03T10:15:23.846Z,53.2
2019-04-03T10:16:17.374Z,53.4
2019-04-03T10:17:08.486Z,53.9
2019-04-03T10:17:53.117Z,54.1
2019-04-03T10:18:45.139Z,54.2
2019-04-03T10:19:33.436Z,54.1
2019-04-03T10:20:23.589Z,53.9
2019-04-03T10:21:13.957Z,53.7
2019-04-03T10:22:04.019Z,53.4
2019-04-03T10:22:58.029Z,53.2
2019-04-03T10:23:43.435Z,53.2
2019-04-03T10:24:34.302Z,53.2
2019-04-03T10:25:24.213Z,52.8
2019-04-03T10:26:14.235Z,52.7
2019-04-03T10:27:03.896Z,52.7
2019-04-03T10:27:54.267Z,52.8
2019-04-03T10:28:49.604Z,52.9
2019-04-03T10:29:34.330Z,52.8
2019-04-03T10:30:24.952Z,52.2
2019-04-03T10:31:14.304Z,51.9
2019-04-03T10:32:04.883Z,51.6
2019-04-03T10:32:54.768Z,51.4
2019-04-03T10:33:44.538Z,51.6
2019-04-03T10:34:38.396Z,51.8
2019-04-03T10:35:25.196Z,51.8
2019-04-03T10:37:04.973Z,52.1
2019-04-03T10:37:55.117Z,52.1
2019-04-03T10:38:59.514Z,52.3
2019-04-03T10:39:35.067Z,52.6
2019-04-03T10:40:27.366Z,52.8
2019-04-03T10:41:15.047Z,52.9
2019-04-03T10:42:05.826Z,53.2
2019-04-03T10:42:55.861Z,53.4
2019-04-03T10:43:45.387Z,53.5
2019-04-03T10:44:35.303Z,53.6
2019-04-03T10:45:25.558Z,53.7
2019-04-03T10:46:16.444Z,53.6
2019-04-03T10:47:04.978Z,53.5
2019-04-03T10:47:58.476Z,53.6
2019-04-03T10:48:45.674Z,53.8
2019-04-03T10:49:35.665Z,54.1
2019-04-03T10:50:25.931Z,54.4
2019-04-03T10:51:15.442Z,54.5
2019-04-03T10:52:06.288Z,54.4
2019-04-03T10:52:55.895Z,53.8
2019-04-03T10:53:46.810Z,53.1
2019-04-03T10:54:39.805Z,52.1
2019-04-03T10:55:30.936Z,51.6
2019-04-03T10:56:16.031Z,51.3
2019-04-03T10:57:06.371Z,51.6
2019-04-03T10:57:56.366Z,52.1
2019-04-03T10:58:49.413Z,52.7
2019-04-03T10:59:36.448Z,52.6
2019-04-03T11:00:30.716Z,52.4
2019-04-03T11:01:16.581Z,52.2
2019-04-03T11:02:06.787Z,52.2
2019-04-03T11:03:46.610Z,52.8
2019-04-03T11:04:36.674Z,53.3
2019-04-03T11:05:27.151Z,53.8
2019-04-03T11:06:16.936Z,54.2
2019-04-03T11:07:06.829Z,54.4
2019-04-03T11:07:57.178Z,54.6
2019-04-03T11:08:46.960Z,54.8
2019-04-03T11:09:37.304Z,55
2019-04-03T11:10:28.084Z,55.2
2019-04-03T11:11:17.399Z,55.4
2019-04-03T11:12:11.199Z,55.6
2019-04-03T11:12:57.765Z,55.6
2019-04-03T11:13:47.119Z,55.4
2019-04-03T11:14:41.531Z,55.2
2019-04-03T11:15:28.137Z,55
2019-04-03T11:16:18.357Z,55
2019-04-03T11:17:58.278Z,55.3
2019-04-03T11:19:40.000Z,55.2
2019-04-03T11:20:28.416Z,55.2
2019-04-03T11:21:17.956Z,55.1
2019-04-03T11:22:08.323Z,55.2
2019-04-03T11:24:51.426Z,55.7
2019-04-03T11:25:48.585Z,55.7
2019-04-03T11:26:32.070Z,55.6
2019-04-03T11:27:46.094Z,55.5
2019-04-03T11:28:11.857Z,55.3
2019-04-03T11:29:01.683Z,55.1
2019-04-03T11:29:51.881Z,54.8
2019-04-03T11:30:41.923Z,54.7
2019-04-03T11:31:44.179Z,54.6
2019-04-03T11:32:24.453Z,54.5
2019-04-03T11:33:15.918Z,54.4
2019-04-03T11:34:02.042Z,54.4
2019-04-03T11:34:55.300Z,54.5
2019-04-03T11:35:42.100Z,54.6
2019-04-03T11:36:33.153Z,54.8
2019-04-03T11:37:22.316Z,55.1
2019-04-03T11:38:30.498Z,55.3
2019-04-03T11:39:18.111Z,55.5